info@concordregional.com
(704) 793-1234
contact us

We're located at
Concord Regional Airport
Concord, North Carolina
Hangar D, same office locations as Charlotte Jet

Flight Planning and Weather Links

Regional METARS  |  NOAA Aviation WX  |  JQF Terminal Charts  |  FltPlan.COM  |  DTC Duats  |  CSC Duats

KJQF 172259Z 00000KT 10SM CLR 17/M03 A3044
KCLT 172352Z 10005KT 10SM FEW250 15/M03 A3040 RMK AO2 SLP293 T01501033 10178 20139 56004
KGSO 172354Z 07004KT 10SM FEW090 SCT250 13/M03 A3042 RMK AO2 SLP303 T01281033 10161 20128 55003
KRDU 172351Z 08006KT 10SM FEW250 14/02 A3044 RMK AO2 SLP307 T01390022 10178 20139 55003
KAVL 172354Z 13006KT 10SM CLR 12/M04 A3038 RMK AO2 SLP289 T01221044 10150 20122 50001
KGSP 172353Z 08005KT 10SM CLR 14/M02 A3036 RMK AO2 SLP282 T01391017 10178 20139 51002
KCAE 172356Z 09006KT 10SM SCT150 17/04 A3036 RMK AO2 SLP280 T01720039 10211 20167 53002
KCHS 172356Z 08010KT 10SM BKN250 17/08 A3035 RMK AO2 SLP278 T01720083 10228 20172 53004

Radar Info

Concord Terminal Charts and local weather

Top